createdAt,value
2017-09-01T00:01:08.344Z,0
2017-09-01T00:02:18.545Z,0
2017-09-01T00:03:28.823Z,0
2017-09-01T00:04:39.099Z,0
2017-09-01T00:05:49.366Z,0
2017-09-01T00:06:59.326Z,0
2017-09-01T00:08:09.539Z,0
2017-09-01T00:09:18.859Z,0
2017-09-01T00:10:29.189Z,0
2017-09-01T00:11:39.461Z,0
2017-09-01T00:12:49.718Z,0
2017-09-01T00:13:59.925Z,0
2017-09-01T00:15:10.232Z,0
2017-09-01T00:16:20.517Z,0
2017-09-01T00:17:30.787Z,0
2017-09-01T00:18:41.064Z,0
2017-09-01T00:19:51.588Z,0
2017-09-01T00:21:01.235Z,0
2017-09-01T00:22:11.189Z,0
2017-09-01T00:23:21.463Z,0
2017-09-01T00:24:31.449Z,0
2017-09-01T00:25:41.979Z,0
2017-09-01T00:26:52.255Z,0
2017-09-01T00:28:02.214Z,0
2017-09-01T00:29:12.263Z,0
2017-09-01T00:30:22.554Z,0
2017-09-01T00:31:33.071Z,0
2017-09-01T00:32:43.350Z,0
2017-09-01T00:33:53.298Z,0
2017-09-01T00:35:03.579Z,0
2017-09-01T00:36:13.552Z,0
2017-09-01T00:37:23.783Z,0
2017-09-01T00:38:34.077Z,0
2017-09-01T00:39:44.356Z,0
2017-09-01T00:40:54.647Z,0
2017-09-01T00:42:04.932Z,0
2017-09-01T00:43:15.182Z,0
2017-09-01T00:44:25.470Z,0
2017-09-01T00:45:35.427Z,0
2017-09-01T00:46:45.068Z,0
2017-09-01T00:47:55.035Z,0
2017-09-01T00:49:05.561Z,0
2017-09-01T00:50:15.499Z,0
2017-09-01T00:51:25.780Z,0
2017-09-01T00:52:36.062Z,0
2017-09-01T00:53:46.021Z,0
2017-09-01T00:54:56.534Z,0
2017-09-01T00:56:06.172Z,0
2017-09-01T00:57:16.440Z,0
2017-09-01T00:58:26.714Z,0
2017-09-01T00:59:36.671Z,0
2017-09-01T01:00:46.886Z,0
2017-09-01T01:01:57.204Z,0
2017-09-01T01:03:07.493Z,0
2017-09-01T01:04:17.794Z,0
2017-09-01T01:05:28.059Z,0
2017-09-01T01:06:38.269Z,0
2017-09-01T01:07:48.560Z,0
2017-09-01T01:08:58.519Z,0
2017-09-01T01:10:08.163Z,0
2017-09-01T01:11:18.451Z,0
2017-09-01T01:12:28.969Z,0
2017-09-01T01:13:38.966Z,0
2017-09-01T01:14:49.242Z,0
2017-09-01T01:15:59.521Z,0
2017-09-01T01:17:09.800Z,0
2017-09-01T01:18:19.996Z,0
2017-09-01T01:19:30.280Z,0
2017-09-01T01:20:40.577Z,0
2017-09-01T01:21:50.863Z,0
2017-09-01T01:23:01.140Z,0
2017-09-01T01:24:11.394Z,0
2017-09-01T01:25:21.660Z,0
2017-09-01T01:26:31.961Z,0
2017-09-01T01:27:42.238Z,0
2017-09-01T01:28:52.194Z,0
2017-09-01T01:30:02.436Z,0
2017-09-01T01:31:12.725Z,0
2017-09-01T01:32:22.672Z,0
2017-09-01T01:33:32.948Z,0
2017-09-01T01:34:42.899Z,0
2017-09-01T01:35:53.430Z,0
2017-09-01T01:37:03.375Z,0
2017-09-01T01:38:13.640Z,0
2017-09-01T01:39:23.924Z,0
2017-09-01T01:40:33.562Z,0
2017-09-01T01:41:44.090Z,0
2017-09-01T01:42:54.374Z,0
2017-09-01T01:44:04.647Z,0
2017-09-01T01:45:14.616Z,0
2017-09-01T01:46:24.894Z,0
2017-09-01T01:47:35.436Z,0
2017-09-01T01:48:45.398Z,0
2017-09-01T01:49:55.674Z,0
2017-09-01T01:51:05.945Z,0
2017-09-01T01:52:16.225Z,0
2017-09-01T01:53:26.766Z,0
2017-09-01T01:54:37.045Z,0
2017-09-01T01:55:47.006Z,0
2017-09-01T01:56:56.965Z,0
2017-09-01T01:58:07.234Z,0
2017-09-01T01:59:17.118Z,0
2017-09-01T02:00:27.399Z,0
2017-09-01T02:01:37.671Z,0
2017-09-01T02:02:47.638Z,0
2017-09-01T02:03:57.603Z,0
2017-09-01T02:05:08.120Z,0
2017-09-01T02:06:18.093Z,0
2017-09-01T02:07:28.378Z,0
2017-09-01T02:08:38.669Z,0
2017-09-01T02:09:48.948Z,0
2017-09-01T02:10:59.459Z,0
2017-09-01T02:12:09.415Z,0
2017-09-01T02:13:19.688Z,0
2017-09-01T02:14:29.946Z,0
2017-09-01T02:15:39.933Z,0
2017-09-01T02:16:50.137Z,0
2017-09-01T02:18:00.409Z,0
2017-09-01T02:19:10.685Z,0
2017-09-01T02:20:20.963Z,0
2017-09-01T02:21:31.243Z,0
2017-09-01T02:22:41.771Z,0
2017-09-01T02:23:52.052Z,0
2017-09-01T02:25:02.334Z,0
2017-09-01T02:26:12.612Z,0
2017-09-01T02:27:22.565Z,0
2017-09-01T02:28:32.785Z,0
2017-09-01T02:29:42.735Z,0
2017-09-01T02:30:53.011Z,0
2017-09-01T02:32:03.298Z,0
2017-09-01T02:33:13.576Z,0
2017-09-01T02:34:24.122Z,0
2017-09-01T02:35:34.404Z,0
2017-09-01T02:36:44.361Z,0
2017-09-01T02:37:54.630Z,0
2017-09-01T02:39:04.910Z,0
2017-09-01T02:40:15.437Z,0
2017-09-01T02:41:25.703Z,0
2017-09-01T02:42:35.671Z,0
2017-09-01T02:43:45.942Z,0
2017-09-01T02:44:56.204Z,0
2017-09-01T02:46:06.726Z,0
2017-09-01T02:47:16.667Z,0
2017-09-01T02:48:26.653Z,0
2017-09-01T02:49:36.934Z,0
2017-09-01T02:50:47.209Z,0
2017-09-01T02:51:57.751Z,0
2017-09-01T02:53:08.044Z,0
2017-09-01T02:54:17.989Z,0
2017-09-01T02:55:28.277Z,0
2017-09-01T02:56:38.568Z,0
2017-09-01T02:57:49.088Z,0
2017-09-01T02:58:59.352Z,0
2017-09-01T03:00:09.616Z,0
2017-09-01T03:01:19.586Z,0
2017-09-01T03:02:29.544Z,0
2017-09-01T03:03:40.076Z,0
2017-09-01T03:04:50.030Z,0
2017-09-01T03:05:59.983Z,0
2017-09-01T03:07:10.252Z,0
2017-09-01T03:08:20.217Z,0
2017-09-01T03:09:30.741Z,0
2017-09-01T03:10:40.723Z,0
2017-09-01T03:11:51.001Z,0
2017-09-01T03:13:00.962Z,0
2017-09-01T03:14:11.234Z,0
2017-09-01T03:15:21.442Z,0
2017-09-01T03:16:31.735Z,0
2017-09-01T03:17:41.710Z,0
2017-09-01T03:18:51.982Z,0
2017-09-01T03:20:01.621Z,0
2017-09-01T03:21:12.151Z,0
2017-09-01T03:22:21.835Z,0
2017-09-01T03:23:31.904Z,0
2017-09-01T03:24:42.185Z,0
2017-09-01T03:25:52.450Z,0
2017-09-01T03:27:02.712Z,0
2017-09-01T03:28:12.672Z,0
2017-09-01T03:29:22.940Z,0
2017-09-01T03:30:32.288Z,0
2017-09-01T03:31:41.941Z,0
2017-09-01T03:32:52.194Z,0
2017-09-01T03:34:02.469Z,0
2017-09-01T03:35:12.429Z,0
2017-09-01T03:36:22.697Z,0
2017-09-01T03:37:32.989Z,0
2017-09-01T03:38:43.506Z,0
2017-09-01T03:39:53.786Z,0
2017-09-01T03:41:04.061Z,0
2017-09-01T03:42:14.331Z,0
2017-09-01T03:43:23.987Z,0
2017-09-01T03:44:34.210Z,0
2017-09-01T03:45:44.168Z,4
2017-09-01T03:46:54.126Z,4
2017-09-01T03:48:04.419Z,4
2017-09-01T03:49:14.058Z,4
2017-09-01T03:50:24.293Z,4
2017-09-01T03:51:34.569Z,8
2017-09-01T03:52:44.848Z,4
2017-09-01T03:53:55.147Z,8
2017-09-01T03:55:04.576Z,8
2017-09-01T03:56:15.111Z,12
2017-09-01T03:57:25.067Z,12
2017-09-01T03:58:35.337Z,16
2017-09-01T03:59:45.605Z,20
2017-09-01T04:00:55.893Z,20
2017-09-01T04:02:06.406Z,28
2017-09-01T04:03:16.359Z,32
2017-09-01T04:04:26.631Z,36
2017-09-01T04:05:36.929Z,48
2017-09-01T04:06:47.203Z,52
2017-09-01T04:07:57.751Z,56
2017-09-01T04:09:08.023Z,68
2017-09-01T04:10:17.667Z,76
2017-09-01T04:11:27.946Z,88
2017-09-01T04:12:38.234Z,104
2017-09-01T04:13:48.776Z,120
2017-09-01T04:14:58.731Z,140
2017-09-01T04:16:08.997Z,156
2017-09-01T04:17:18.625Z,184
2017-09-01T04:18:28.895Z,204
2017-09-01T04:19:39.098Z,240
2017-09-01T04:20:49.370Z,276
2017-09-01T04:21:59.641Z,316
2017-09-01T04:23:09.588Z,364
2017-09-01T04:24:19.556Z,412
2017-09-01T04:25:29.823Z,464
2017-09-01T04:26:39.779Z,524
2017-09-01T04:27:49.723Z,584
2017-09-01T04:29:00.009Z,648
2017-09-01T04:30:09.982Z,704
2017-09-01T04:31:20.201Z,764
2017-09-01T04:32:30.473Z,828
2017-09-01T04:33:40.432Z,896
2017-09-01T04:34:50.408Z,972
2017-09-01T04:36:00.377Z,1056
2017-09-01T04:37:10.912Z,1140
2017-09-01T04:38:20.866Z,1228
2017-09-01T04:39:31.145Z,1316
2017-09-01T04:40:41.417Z,1396
2017-09-01T04:41:51.670Z,1456
2017-09-01T04:43:01.566Z,1496
2017-09-01T04:44:10.899Z,1516
2017-09-01T04:45:21.197Z,1548
2017-09-01T04:46:31.463Z,1572
2017-09-01T04:47:41.400Z,1600
2017-09-01T04:48:51.610Z,1632
2017-09-01T04:50:01.572Z,1684
2017-09-01T04:51:11.853Z,1748
2017-09-01T04:52:21.501Z,1844
2017-09-01T04:53:31.791Z,1956
2017-09-01T04:54:42.021Z,2096
2017-09-01T04:55:52.298Z,2244
2017-09-01T04:57:02.574Z,2408
2017-09-01T04:58:12.873Z,2548
2017-09-01T04:59:22.828Z,2644
2017-09-01T05:00:33.064Z,2684
2017-09-01T05:01:43.027Z,2704
2017-09-01T05:02:52.672Z,2740
2017-09-01T05:04:02.642Z,2788
2017-09-01T05:05:12.907Z,2880
2017-09-01T05:06:23.440Z,2968
2017-09-01T05:07:33.686Z,3068
2017-09-01T05:08:43.955Z,3200
2017-09-01T05:09:54.233Z,3316
2017-09-01T05:11:04.188Z,3352
2017-09-01T05:12:14.415Z,3332
2017-09-01T05:13:24.051Z,3308
2017-09-01T05:14:34.329Z,3340
2017-09-01T05:15:44.610Z,3464
2017-09-01T05:16:54.895Z,3644
2017-09-01T05:18:05.423Z,3836
2017-09-01T05:19:15.389Z,3996
2017-09-01T05:20:25.667Z,4124
2017-09-01T05:21:35.936Z,4228
2017-09-01T05:22:45.911Z,4292
2017-09-01T05:23:56.463Z,4332
2017-09-01T05:25:06.762Z,4364
2017-09-01T05:26:16.737Z,4420
2017-09-01T05:27:26.384Z,4500
2017-09-01T05:28:36.665Z,4600
2017-09-01T05:29:46.546Z,4728
2017-09-01T05:30:56.833Z,4876
2017-09-01T05:32:07.113Z,5004
2017-09-01T05:33:16.756Z,5040
2017-09-01T05:34:26.712Z,5008
2017-09-01T05:35:36.930Z,4992
2017-09-01T05:36:46.888Z,5028
2017-09-01T05:37:56.851Z,5064
2017-09-01T05:39:07.124Z,5112
2017-09-01T05:40:17.427Z,5200
2017-09-01T05:41:27.962Z,5360
2017-09-01T05:42:38.242Z,5600
2017-09-01T05:43:48.511Z,5888
2017-09-01T05:44:58.155Z,6184
2017-09-01T05:46:08.428Z,6444
2017-09-01T05:47:19.036Z,6616
2017-09-01T05:48:29.303Z,6704
2017-09-01T05:49:39.260Z,6776
2017-09-01T05:50:49.559Z,6820
2017-09-01T05:51:59.510Z,6824
2017-09-01T05:53:10.039Z,6896
2017-09-01T05:54:20.318Z,6960
2017-09-01T05:55:30.639Z,7000
2017-09-01T05:56:40.596Z,7060
2017-09-01T05:57:50.574Z,7104
2017-09-01T05:59:01.108Z,7160
2017-09-01T06:00:11.389Z,7252
2017-09-01T06:01:21.671Z,7388
2017-09-01T06:02:31.960Z,7568
2017-09-01T06:03:42.241Z,7768
2017-09-01T06:04:52.797Z,7976
2017-09-01T06:06:03.084Z,8140
2017-09-01T06:07:13.375Z,8308
2017-09-01T06:08:23.669Z,8500
2017-09-01T06:09:33.959Z,8636
2017-09-01T06:10:44.493Z,8728
2017-09-01T06:11:54.785Z,8800
2017-09-01T06:13:04.747Z,8864
2017-09-01T06:14:14.714Z,8920
2017-09-01T06:15:24.988Z,8944
2017-09-01T06:16:35.510Z,8924
2017-09-01T06:17:45.470Z,8916
2017-09-01T06:18:55.755Z,8932
2017-09-01T06:20:05.727Z,8980
2017-09-01T06:21:16.029Z,9044
2017-09-01T06:22:26.548Z,9152
2017-09-01T06:23:36.503Z,9340
2017-09-01T06:24:46.494Z,9552
2017-09-01T06:25:56.455Z,9704
2017-09-01T06:27:06.725Z,9856
2017-09-01T06:28:16.932Z,9972
2017-09-01T06:29:27.216Z,10044
2017-09-01T06:30:37.580Z,10144
2017-09-01T06:31:47.956Z,10220
2017-09-01T06:32:57.655Z,10292
2017-09-01T06:34:07.884Z,10456
2017-09-01T06:35:18.156Z,10672
2017-09-01T06:36:28.182Z,10880
2017-09-01T06:37:37.831Z,11016
2017-09-01T06:38:47.833Z,11084
2017-09-01T06:39:58.060Z,11092
2017-09-01T06:41:08.372Z,11100
2017-09-01T06:42:18.659Z,11144
2017-09-01T06:43:28.659Z,11280
2017-09-01T06:44:38.992Z,11544
2017-09-01T06:45:49.190Z,11868
2017-09-01T06:46:59.165Z,12112
2017-09-01T06:48:09.456Z,12316
2017-09-01T06:49:19.719Z,12580
2017-09-01T06:50:29.990Z,12796
2017-09-01T06:51:40.552Z,12592
2017-09-01T06:52:50.520Z,12244
2017-09-01T06:54:00.806Z,12276
2017-09-01T06:55:10.764Z,12460
2017-09-01T06:56:21.254Z,12544
2017-09-01T06:57:31.788Z,12800
2017-09-01T06:58:43.026Z,12912
2017-09-01T06:59:53.005Z,13272
2017-09-01T07:01:03.312Z,13748
2017-09-01T07:02:12.968Z,13964
2017-09-01T07:03:23.194Z,14136
2017-09-01T07:04:33.150Z,14568
2017-09-01T07:05:43.106Z,15088
2017-09-01T07:06:53.383Z,15824
2017-09-01T07:08:03.335Z,16344
2017-09-01T07:09:13.552Z,16916
2017-09-01T07:10:23.808Z,17420
2017-09-01T07:11:34.100Z,18080
2017-09-01T07:12:44.382Z,18496
2017-09-01T07:13:54.884Z,18880
2017-09-01T07:15:05.245Z,18752
2017-09-01T07:16:15.762Z,18688
2017-09-01T07:17:26.240Z,18624
2017-09-01T07:18:36.529Z,18528
2017-09-01T07:19:46.817Z,18272
2017-09-01T07:20:57.033Z,18208
2017-09-01T07:22:07.303Z,18304
2017-09-01T07:23:17.578Z,18272
2017-09-01T07:24:27.865Z,18496
2017-09-01T07:25:37.851Z,18752
2017-09-01T07:26:47.762Z,19008
2017-09-01T07:27:57.402Z,19456
2017-09-01T07:29:07.696Z,19936
2017-09-01T07:30:17.669Z,20512
2017-09-01T07:31:27.967Z,21312
2017-09-01T07:32:38.499Z,22176
2017-09-01T07:33:48.769Z,22944
2017-09-01T07:34:59.040Z,23200
2017-09-01T07:36:09.329Z,23104
2017-09-01T07:37:19.608Z,22880
2017-09-01T07:38:29.510Z,22400
2017-09-01T07:39:39.471Z,21824
2017-09-01T07:40:49.793Z,21088
2017-09-01T07:41:59.767Z,20864
2017-09-01T07:43:10.057Z,20768
2017-09-01T07:44:20.593Z,20832
2017-09-01T07:45:30.897Z,20896
2017-09-01T07:46:41.193Z,21088
2017-09-01T07:47:51.482Z,21472
2017-09-01T07:49:01.767Z,21888
2017-09-01T07:50:11.985Z,22496
2017-09-01T07:51:22.256Z,22784
2017-09-01T07:52:32.234Z,22976
2017-09-01T07:53:42.515Z,23488
2017-09-01T07:54:52.808Z,24128
2017-09-01T07:56:03.338Z,24992
2017-09-01T07:57:13.329Z,25792
2017-09-01T07:58:23.303Z,26496
2017-09-01T07:59:33.622Z,26944
2017-09-01T08:00:43.589Z,27232
2017-09-01T08:01:53.807Z,27360
2017-09-01T08:03:03.439Z,27392
2017-09-01T08:04:12.779Z,27360
2017-09-01T08:05:23.145Z,27136
2017-09-01T08:06:33.429Z,26944
2017-09-01T08:07:43.641Z,26336
2017-09-01T08:08:53.930Z,25856
2017-09-01T08:10:03.903Z,25632
2017-09-01T08:11:13.886Z,25344
2017-09-01T08:12:23.860Z,25376
2017-09-01T08:13:34.408Z,25728
2017-09-01T08:14:44.693Z,26496
2017-09-01T08:15:54.647Z,28288
2017-09-01T08:17:04.951Z,30048
2017-09-01T08:18:15.243Z,34368
2017-09-01T08:19:25.826Z,42240
2017-09-01T08:20:36.104Z,34432
2017-09-01T08:21:46.362Z,37600
2017-09-01T08:22:56.650Z,35648
2017-09-01T08:24:06.962Z,30016
2017-09-01T08:25:17.508Z,37088
2017-09-01T08:26:27.508Z,32960
2017-09-01T08:27:37.507Z,31776
2017-09-01T08:28:47.809Z,32640
2017-09-01T08:29:57.766Z,30272
2017-09-01T08:31:08.005Z,30400
2017-09-01T08:32:17.973Z,27840
2017-09-01T08:33:28.301Z,26368
2017-09-01T08:34:38.279Z,27328
2017-09-01T08:35:48.576Z,30368
2017-09-01T08:36:58.795Z,29184
2017-09-01T08:38:09.102Z,28704
2017-09-01T08:39:19.387Z,28896
2017-09-01T08:40:29.050Z,32992
2017-09-01T08:41:39.358Z,31904
2017-09-01T08:42:49.906Z,43040
2017-09-01T08:43:59.881Z,28960
2017-09-01T08:45:10.170Z,29920
2017-09-01T08:46:20.462Z,37632
2017-09-01T08:47:30.749Z,37088
2017-09-01T08:48:41.292Z,47904
2017-09-01T08:49:51.593Z,49152
2017-09-01T08:51:01.878Z,54944
2017-09-01T08:52:11.864Z,47488
2017-09-01T08:53:22.151Z,63776
2017-09-01T08:54:32.680Z,64928
2017-09-01T08:55:42.690Z,62080
2017-09-01T08:56:52.675Z,52832
2017-09-01T08:58:02.968Z,36416
2017-09-01T08:59:12.930Z,54752
2017-09-01T09:00:23.155Z,68416
2017-09-01T09:01:33.131Z,69504
2017-09-01T09:02:43.153Z,72448
2017-09-01T09:03:53.482Z,59712
2017-09-01T09:05:03.801Z,70336
2017-09-01T09:06:14.333Z,55648
2017-09-01T09:07:24.638Z,35552
2017-09-01T09:08:34.601Z,37216
2017-09-01T09:09:44.584Z,51872
2017-09-01T09:10:54.882Z,34208
2017-09-01T09:12:05.478Z,32992
2017-09-01T09:13:15.790Z,31264
2017-09-01T09:14:26.093Z,30784
2017-09-01T09:15:36.074Z,31072
2017-09-01T09:16:46.395Z,29696
2017-09-01T09:17:56.607Z,30304
2017-09-01T09:19:06.262Z,31488
2017-09-01T09:20:16.561Z,30688
2017-09-01T09:21:26.846Z,31808
2017-09-01T09:22:37.132Z,32768
2017-09-01T09:23:47.669Z,33440
2017-09-01T09:24:57.638Z,33728
2017-09-01T09:26:07.964Z,34944
2017-09-01T09:27:17.615Z,37120
2017-09-01T09:28:27.894Z,44416
2017-09-01T09:29:38.429Z,47744
2017-09-01T09:30:48.118Z,44768
2017-09-01T09:31:58.086Z,49696
2017-09-01T09:33:07.745Z,46528
2017-09-01T09:34:17.724Z,46816
2017-09-01T09:35:28.275Z,50144
2017-09-01T09:36:38.568Z,50464
2017-09-01T09:37:48.856Z,56704
2017-09-01T09:38:59.389Z,76608
2017-09-01T09:40:09.692Z,50848
2017-09-01T09:41:20.245Z,49152
2017-09-01T09:42:30.225Z,55776
2017-09-01T09:43:39.891Z,53760
2017-09-01T09:44:50.169Z,42432
2017-09-01T09:46:00.463Z,41216
2017-09-01T09:47:11.001Z,40160
2017-09-01T09:48:20.975Z,38848
2017-09-01T09:49:31.258Z,37824
2017-09-01T09:50:41.221Z,37056
2017-09-01T09:51:51.206Z,38560
2017-09-01T09:53:01.753Z,41696
2017-09-01T09:54:11.734Z,45184
2017-09-01T09:55:22.018Z,49504
2017-09-01T09:56:32.314Z,45216
2017-09-01T09:57:42.604Z,44288
2017-09-01T09:58:52.827Z,43328
2017-09-01T10:00:02.799Z,49664
2017-09-01T10:01:12.781Z,45536
2017-09-01T10:02:23.095Z,48192
2017-09-01T10:03:33.401Z,44096
2017-09-01T10:04:43.977Z,54304
2017-09-01T10:05:53.959Z,49440
2017-09-01T10:07:04.270Z,47968
2017-09-01T10:08:14.638Z,53024
2017-09-01T10:09:24.344Z,49952
2017-09-01T10:10:34.632Z,47840
2017-09-01T10:11:44.963Z,49664
2017-09-01T10:12:55.346Z,64800
2017-09-01T10:14:05.047Z,54656
2017-09-01T10:15:14.713Z,61504
2017-09-01T10:16:24.964Z,53248
2017-09-01T10:17:34.959Z,53440
2017-09-01T10:18:44.951Z,58304
2017-09-01T10:19:55.244Z,52896
2017-09-01T10:21:05.550Z,70496
2017-09-01T10:22:15.784Z,53248
2017-09-01T10:23:25.746Z,45216
2017-09-01T10:24:36.034Z,45952
2017-09-01T10:25:46.026Z,59936
2017-09-01T10:26:56.314Z,64800
2017-09-01T10:28:06.884Z,64544
2017-09-01T10:29:17.196Z,61216
2017-09-01T10:30:27.482Z,56448
2017-09-01T10:31:37.493Z,49504
2017-09-01T10:32:47.798Z,36256
2017-09-01T10:33:57.716Z,29728
2017-09-01T10:35:08.002Z,25920
2017-09-01T10:36:18.301Z,23520
2017-09-01T10:37:28.813Z,22208
2017-09-01T10:38:39.323Z,21568
2017-09-01T10:39:50.116Z,20960
2017-09-01T10:40:59.747Z,20320
2017-09-01T10:42:10.022Z,19456
2017-09-01T10:43:20.309Z,18336
2017-09-01T10:44:29.961Z,17216
2017-09-01T10:45:40.534Z,15880
2017-09-01T10:46:50.819Z,14860
2017-09-01T10:48:01.100Z,14200
2017-09-01T10:49:11.376Z,13956
2017-09-01T10:50:21.038Z,13924
2017-09-01T10:51:31.591Z,13940
2017-09-01T10:52:41.897Z,13888
2017-09-01T10:53:52.192Z,13852
2017-09-01T10:55:02.474Z,13984
2017-09-01T10:56:12.432Z,14284
2017-09-01T10:57:22.696Z,14556
2017-09-01T10:58:32.667Z,14756
2017-09-01T10:59:42.958Z,15176
2017-09-01T11:00:53.238Z,15664
2017-09-01T11:02:03.550Z,15976
2017-09-01T11:03:14.087Z,16168
2017-09-01T11:04:24.430Z,16360
2017-09-01T11:05:34.736Z,16544
2017-09-01T11:06:44.699Z,16812
2017-09-01T11:07:54.989Z,17408
2017-09-01T11:09:05.220Z,17728
2017-09-01T11:10:15.567Z,17888
2017-09-01T11:11:25.549Z,17920
2017-09-01T11:12:35.844Z,17888
2017-09-01T11:13:46.122Z,17792
2017-09-01T11:14:56.367Z,17728
2017-09-01T11:16:06.647Z,17824
2017-09-01T11:17:17.146Z,17632
2017-09-01T11:18:27.424Z,17184
2017-09-01T11:19:37.053Z,16236
2017-09-01T11:20:47.828Z,15484
2017-09-01T11:21:57.788Z,14992
2017-09-01T11:23:08.097Z,14760
2017-09-01T11:24:18.058Z,14700
2017-09-01T11:25:27.692Z,14688
2017-09-01T11:26:38.242Z,14716
2017-09-01T11:27:47.891Z,14776
2017-09-01T11:28:58.190Z,14868
2017-09-01T11:30:08.161Z,15016
2017-09-01T11:31:18.475Z,15132
2017-09-01T11:32:29.016Z,15272
2017-09-01T11:33:39.312Z,15352
2017-09-01T11:34:49.588Z,15504
2017-09-01T11:35:59.855Z,15700
2017-09-01T11:37:09.781Z,15808
2017-09-01T11:38:19.674Z,15436
2017-09-01T11:39:29.964Z,15000
2017-09-01T11:40:40.240Z,14696
2017-09-01T11:41:50.178Z,14652
2017-09-01T11:43:00.150Z,14676
2017-09-01T11:44:10.684Z,14712
2017-09-01T11:45:20.332Z,14864
2017-09-01T11:46:30.321Z,15228
2017-09-01T11:47:40.581Z,15780
2017-09-01T11:48:50.878Z,16248
2017-09-01T11:50:01.121Z,16392
2017-09-01T11:51:10.805Z,16144
2017-09-01T11:52:21.093Z,15820
2017-09-01T11:53:31.395Z,15692
2017-09-01T11:54:41.351Z,15852
2017-09-01T11:55:51.231Z,16316
2017-09-01T11:57:01.205Z,16856
2017-09-01T11:58:11.483Z,17280
2017-09-01T11:59:21.794Z,16748
2017-09-01T12:00:32.053Z,16064
2017-09-01T12:01:42.866Z,15388
2017-09-01T12:02:53.145Z,14920
2017-09-01T12:04:02.785Z,14576
2017-09-01T12:05:13.061Z,14312
2017-09-01T12:06:23.342Z,14176
2017-09-01T12:07:33.555Z,14076
2017-09-01T12:08:43.850Z,13944
2017-09-01T12:09:53.827Z,13824
2017-09-01T12:11:04.128Z,13564
2017-09-01T12:12:14.418Z,13100
2017-09-01T12:13:24.628Z,12424
2017-09-01T12:14:33.957Z,11744
2017-09-01T12:15:44.181Z,11412
2017-09-01T12:16:54.151Z,11248
2017-09-01T12:18:04.461Z,11184
2017-09-01T12:19:14.999Z,11092
2017-09-01T12:20:25.291Z,10876
2017-09-01T12:21:35.557Z,10684
2017-09-01T12:22:45.825Z,10468
2017-09-01T12:23:56.126Z,10416
2017-09-01T12:25:06.649Z,10340
2017-09-01T12:26:16.939Z,10208
2017-09-01T12:27:26.902Z,10152
2017-09-01T12:28:36.551Z,10408
2017-09-01T12:29:46.530Z,11060
2017-09-01T12:30:57.124Z,12092
2017-09-01T12:32:07.421Z,13136
2017-09-01T12:33:17.702Z,13808
2017-09-01T12:34:27.992Z,13988
2017-09-01T12:35:38.279Z,13772
2017-09-01T12:36:48.810Z,13332
2017-09-01T12:37:58.765Z,12884
2017-09-01T12:39:08.727Z,12572
2017-09-01T12:40:19.030Z,12420
2017-09-01T12:41:29.309Z,12320
2017-09-01T12:42:39.849Z,12168
2017-09-01T12:43:50.124Z,11952
2017-09-01T12:45:00.386Z,11808
2017-09-01T12:46:10.658Z,11764
2017-09-01T12:47:20.634Z,11792
2017-09-01T12:48:31.162Z,11772
2017-09-01T12:49:41.128Z,11712
2017-09-01T12:50:51.099Z,11720
2017-09-01T12:52:01.053Z,11816
2017-09-01T12:53:11.344Z,12028
2017-09-01T12:54:21.896Z,12296
2017-09-01T12:55:32.218Z,12596
2017-09-01T12:56:42.546Z,12860
2017-09-01T12:57:52.511Z,13008
2017-09-01T12:59:02.169Z,13084
2017-09-01T13:00:12.409Z,13236
2017-09-01T13:01:22.674Z,13384
2017-09-01T13:02:33.149Z,13180
2017-09-01T13:03:43.421Z,12560
2017-09-01T13:04:53.400Z,11860
2017-09-01T13:06:03.929Z,11440
2017-09-01T13:07:13.893Z,11300
2017-09-01T13:08:23.841Z,11152
2017-09-01T13:09:34.119Z,10960
2017-09-01T13:10:44.408Z,10700
2017-09-01T13:11:54.932Z,10532
2017-09-01T13:13:04.926Z,10588
2017-09-01T13:14:15.209Z,10896
2017-09-01T13:15:25.190Z,11452
2017-09-01T13:16:35.480Z,12148
2017-09-01T13:17:45.660Z,12924
2017-09-01T13:18:55.640Z,13788
2017-09-01T13:20:05.607Z,14808
2017-09-01T13:21:15.873Z,15984
2017-09-01T13:22:26.155Z,17184
2017-09-01T13:23:36.606Z,17856
2017-09-01T13:24:46.566Z,18176
2017-09-01T13:25:57.072Z,18240
2017-09-01T13:27:07.369Z,14264
2017-09-01T13:28:17.660Z,17984
2017-09-01T13:29:28.198Z,17664
2017-09-01T13:30:38.451Z,17472
2017-09-01T13:31:48.407Z,17408
2017-09-01T13:32:58.701Z,17376
2017-09-01T13:34:08.660Z,16888
2017-09-01T13:35:18.861Z,16416
2017-09-01T13:36:28.186Z,15996
2017-09-01T13:37:38.473Z,15640
2017-09-01T13:38:48.424Z,15372
2017-09-01T13:39:58.698Z,15228
2017-09-01T13:41:08.898Z,15168
2017-09-01T13:42:19.190Z,15224
2017-09-01T13:43:29.459Z,15508
2017-09-01T13:44:39.725Z,15816
2017-09-01T13:45:50.009Z,16092
2017-09-01T13:46:59.909Z,16356
2017-09-01T13:48:10.185Z,16516
2017-09-01T13:49:20.463Z,16424
2017-09-01T13:50:30.435Z,16428
2017-09-01T13:51:40.716Z,16760
2017-09-01T13:52:51.256Z,17536
2017-09-01T13:54:01.528Z,17920
2017-09-01T13:55:11.820Z,17856
2017-09-01T13:56:22.107Z,17344
2017-09-01T13:57:32.395Z,16520
2017-09-01T13:58:42.953Z,15848
2017-09-01T13:59:53.229Z,15112
2017-09-01T14:01:03.486Z,14352
2017-09-01T14:02:13.769Z,13780
2017-09-01T14:03:23.750Z,13416
2017-09-01T14:04:33.332Z,13292
2017-09-01T14:05:43.616Z,13124
2017-09-01T14:06:53.904Z,12864
2017-09-01T14:08:04.184Z,12744
2017-09-01T14:09:14.472Z,12624
2017-09-01T14:10:24.990Z,12572
2017-09-01T14:11:35.282Z,12748
2017-09-01T14:12:45.240Z,12764
2017-09-01T14:13:55.215Z,12516
2017-09-01T14:15:05.502Z,12028
2017-09-01T14:16:16.034Z,11552
2017-09-01T14:17:26.325Z,11016
2017-09-01T14:18:36.614Z,10484
2017-09-01T14:19:46.575Z,10016
2017-09-01T14:20:56.843Z,9596
2017-09-01T14:22:07.397Z,9200
2017-09-01T14:23:17.354Z,8896
2017-09-01T14:24:26.991Z,8664
2017-09-01T14:25:37.319Z,8536
2017-09-01T14:26:47.624Z,8412
2017-09-01T14:27:58.156Z,8236
2017-09-01T14:29:07.908Z,8000
2017-09-01T14:30:18.165Z,7756
2017-09-01T14:31:27.814Z,7528
2017-09-01T14:32:37.772Z,7268
2017-09-01T14:33:47.993Z,7068
2017-09-01T14:34:57.651Z,6856
2017-09-01T14:36:07.611Z,6676
2017-09-01T14:37:17.896Z,6540
2017-09-01T14:38:28.168Z,6432
2017-09-01T14:39:38.392Z,6352
2017-09-01T14:40:48.368Z,6296
2017-09-01T14:41:58.646Z,6260
2017-09-01T14:43:08.936Z,6232
2017-09-01T14:44:18.941Z,6208
2017-09-01T14:45:29.476Z,6216
2017-09-01T14:46:39.769Z,6256
2017-09-01T14:47:49.713Z,6300
2017-09-01T14:48:59.677Z,6312
2017-09-01T14:50:09.958Z,6268
2017-09-01T14:51:20.191Z,6168
2017-09-01T14:52:30.479Z,6048
2017-09-01T14:53:40.771Z,5920
2017-09-01T14:54:51.061Z,5804
2017-09-01T14:56:01.025Z,5700
2017-09-01T14:57:11.232Z,5596
2017-09-01T14:58:21.214Z,5520
2017-09-01T14:59:31.504Z,5484
2017-09-01T15:00:41.469Z,5488
2017-09-01T15:01:51.754Z,5512
2017-09-01T15:03:02.276Z,5528
2017-09-01T15:04:12.234Z,5504
2017-09-01T15:05:22.201Z,5456
2017-09-01T15:06:32.173Z,5404
2017-09-01T15:07:42.460Z,5360
2017-09-01T15:08:53.008Z,5332
2017-09-01T15:10:03.252Z,5320
2017-09-01T15:11:13.220Z,5328
2017-09-01T15:12:23.185Z,5352
2017-09-01T15:13:32.818Z,5356
2017-09-01T15:14:43.385Z,5324
2017-09-01T15:15:53.029Z,5284
2017-09-01T15:17:02.712Z,5248
2017-09-01T15:18:12.990Z,5236
2017-09-01T15:19:23.239Z,5252
2017-09-01T15:20:33.764Z,5276
2017-09-01T15:21:44.076Z,5308
2017-09-01T15:22:54.346Z,5332
2017-09-01T15:24:04.618Z,5344
2017-09-01T15:25:14.575Z,5348
2017-09-01T15:26:24.772Z,5360
2017-09-01T15:27:34.703Z,5384
2017-09-01T15:28:44.316Z,5412
2017-09-01T15:29:54.595Z,5432
2017-09-01T15:31:04.877Z,5448
2017-09-01T15:32:15.094Z,5468
2017-09-01T15:33:25.394Z,5508
2017-09-01T15:34:35.369Z,5556
2017-09-01T15:35:45.663Z,5628
2017-09-01T15:36:55.942Z,5736
2017-09-01T15:38:06.482Z,5888
2017-09-01T15:39:16.786Z,6068
2017-09-01T15:40:27.072Z,6232
2017-09-01T15:41:36.722Z,6356
2017-09-01T15:42:46.703Z,6428
2017-09-01T15:43:56.930Z,6468